Time;durP1;ratioP1;P1;durP2;ratioP2;P2;SDS_P1;SDS_P2;PMS_P1;PMS_P2;Temp;Humidity;BMP_temperature;BMP_pressure;BME280_temperature;BME280_humidity;BME280_pressure;Samples;Min_cycle;Max_cycle;Signal;HPM_P1;HPM_P2
2024/03/01 00:00:31;;;;;;;;;;;;;;;2.75;57.09;94400.81;4957734;28;19965;-67
2024/03/01 00:02:56;;;;;;;;;;;;;;;2.85;56.90;94401.50;4957968;28;19953;-66
2024/03/01 00:05:22;;;;;;;;;;;;;;;2.88;57.93;94395.94;4957879;28;19973;-66
2024/03/01 00:07:48;;;;;;;;;;;;;;;2.77;56.83;94401.47;4957995;28;19968;-67
2024/03/01 00:10:13;;;;;;;;;;;;;;;2.74;56.21;94402.63;4956062;28;19984;-66
2024/03/01 00:12:38;;;;;;;;;;;;;;;2.78;56.18;94403.13;4956465;28;19918;-67
2024/03/01 00:15:22;;;;;;;;;;;;;;;2.98;56.49;94398.41;4956368;28;20342;-67
2024/03/01 00:18:06;;;;;;;;;;;;;;;2.75;55.25;94398.16;4956689;28;19973;-67
2024/03/01 00:23:34;;;;;;;;;;;;;;;2.83;58.73;94390.34;4956511;28;20341;-67
2024/03/01 00:29:03;;;;;;;;;;;;;;;2.74;57.09;94393.91;4953470;28;20000;-67
2024/03/01 00:31:29;;;;;;;;;;;;;;;2.74;58.72;94393.91;4956391;28;19926;-66
2024/03/01 00:36:38;;;;;;;;;;;;;;;2.75;58.62;94387.66;4955918;28;20504;-67
2024/03/01 00:50:21;;;;;;;;;;;;;;;1.97;56.03;94379.75;4955530;28;20020;-67
2024/03/01 00:52:46;;;;;;;;;;;;;;;2.48;59.04;94373.75;4955026;28;20028;-66
2024/03/01 01:00:58;;;;;;;;;;;;;;;2.47;57.87;94356.34;4955302;28;19980;-68
2024/03/01 01:03:42;;;;;;;;;;;;;;;2.59;59.76;94364.78;4954558;28;20017;-68
2024/03/01 01:09:29;;;;;;;;;;;;;;;2.51;58.41;94358.53;4954341;28;19953;-67
2024/03/01 01:20:24;;;;;;;;;;;;;;;2.36;59.78;94357.47;4950750;28;19933;-67
2024/03/01 01:22:50;;;;;;;;;;;;;;;2.12;58.22;94349.31;4956450;28;19922;-68
2024/03/01 01:25:15;;;;;;;;;;;;;;;2.27;59.46;94346.09;4956270;28;19925;-67
2024/03/01 01:31:02;;;;;;;;;;;;;;;2.26;60.33;94344.47;4956689;28;20025;-68
2024/03/01 01:33:46;;;;;;;;;;;;;;;2.16;61.08;94344.56;4955491;28;20488;-67
2024/03/01 01:41:38;;;;;;;;;;;;;;;2.22;59.64;94337.88;4955328;28;20789;-67
2024/03/01 01:44:22;;;;;;;;;;;;;;;2.22;60.17;94327.38;4956131;28;19926;-67
2024/03/01 01:50:09;;;;;;;;;;;;;;;2.22;60.95;94324.75;4955932;28;19934;-67
2024/03/01 02:01:23;;;;;;;;;;;;;;;2.20;60.54;94329.31;4955188;28;20020;-68
2024/03/01 02:09:54;;;;;;;;;;;;;;;2.27;60.46;94317.22;4954982;28;19933;-68
2024/03/01 02:15:22;;;;;;;;;;;;;;;2.17;60.77;94319.16;4954054;28;20382;-67
2024/03/01 02:21:09;;;;;;;;;;;;;;;2.33;60.85;94321.00;4952598;28;19933;-67
2024/03/01 02:23:34;;;;;;;;;;;;;;;2.53;61.45;94311.06;4955629;28;19918;-66
2024/03/01 02:29:01;;;;;;;;;;;;;;;2.80;59.18;94306.53;4954668;28;19975;-66
2024/03/01 02:31:27;;;;;;;;;;;;;;;2.98;59.05;94310.81;4957115;28;19922;-66
2024/03/01 02:39:38;;;;;;;;;;;;;;;3.41;57.38;94316.75;4946352;28;19962;-66
2024/03/01 02:42:04;;;;;;;;;;;;;;;3.48;57.49;94308.25;4953590;28;19930;-66
2024/03/01 02:53:37;;;;;;;;;;;;;;;4.02;54.85;94312.91;4949564;28;20710;-66
2024/03/01 03:01:48;;;;;;;;;;;;;;;4.09;53.12;94289.38;4948678;28;20048;-66
2024/03/01 03:10:00;;;;;;;;;;;;;;;3.91;55.50;94279.84;4957110;28;20734;-66
2024/03/01 03:12:44;;;;;;;;;;;;;;;4.08;54.81;94274.53;4948819;28;19922;-66
2024/03/01 03:15:10;;;;;;;;;;;;;;;4.01;53.65;94274.41;4950339;28;20428;-67
2024/03/01 03:17:35;;;;;;;;;;;;;;;3.11;52.71;94274.34;4947581;28;19933;-66
2024/03/01 03:20:01;;;;;;;;;;;;;;;3.64;54.67;94274.00;4949513;28;20335;-66
2024/03/01 03:22:26;;;;;;;;;;;;;;;3.70;54.23;94276.97;4953412;28;19932;-68
2024/03/01 03:24:51;;;;;;;;;;;;;;;3.75;53.75;94280.75;4956950;28;20428;-68
2024/03/01 03:27:16;;;;;;;;;;;;;;;3.85;52.14;94275.28;4949107;28;20351;-68
2024/03/01 03:29:42;;;;;;;;;;;;;;;3.97;54.85;94267.00;4953551;28;19940;-67
2024/03/01 03:32:07;;;;;;;;;;;;;;;4.10;53.88;94272.56;4948486;28;20008;-68
2024/03/01 03:34:33;;;;;;;;;;;;;;;4.14;53.39;94270.38;4949070;28;19926;-68
2024/03/01 03:36:58;;;;;;;;;;;;;;;4.14;54.08;94278.28;4957864;28;19961;-68
2024/03/01 03:39:23;;;;;;;;;;;;;;;4.25;52.61;94277.91;4951310;28;19918;-68
2024/03/01 03:41:48;;;;;;;;;;;;;;;4.35;52.84;94277.72;4945326;28;19976;-68
2024/03/01 03:44:14;;;;;;;;;;;;;;;4.36;52.90;94275.91;4958066;28;19957;-68
2024/03/01 03:46:39;;;;;;;;;;;;;;;4.41;53.20;94265.66;4957797;28;19976;-68
2024/03/01 03:49:07;;;;;;;;;;;;;;;4.41;53.65;94273.56;4958211;28;19960;-68
2024/03/01 03:51:32;;;;;;;;;;;;;;;4.35;52.28;94275.09;4958490;28;19997;-68
2024/03/01 03:53:58;;;;;;;;;;;;;;;4.19;52.61;94276.78;4957786;28;20733;-68
2024/03/01 03:56:23;;;;;;;;;;;;;;;3.98;53.40;94268.66;4958056;28;19961;-68
2024/03/01 03:58:48;;;;;;;;;;;;;;;3.99;52.53;94275.56;4958567;28;20001;-68
2024/03/01 04:01:14;;;;;;;;;;;;;;;3.94;53.17;94276.88;4957453;28;19933;-68
2024/03/01 04:03:39;;;;;;;;;;;;;;;3.91;53.80;94279.06;4957400;28;20342;-68
2024/03/01 04:06:06;;;;;;;;;;;;;;;3.90;55.59;94272.13;4957737;28;20264;-68
2024/03/01 04:08:32;;;;;;;;;;;;;;;3.99;53.89;94275.56;4958224;28;19944;-67
2024/03/01 04:10:57;;;;;;;;;;;;;;;4.08;54.46;94274.53;4958000;28;20454;-67
2024/03/01 04:13:25;;;;;;;;;;;;;;;3.94;54.49;94284.78;4957840;28;20335;-68
2024/03/01 04:15:50;;;;;;;;;;;;;;;4.07;54.23;94284.25;4957681;28;19925;-68
2024/03/01 04:18:17;;;;;;;;;;;;;;;4.21;54.97;94289.00;4955383;28;19937;-68
2024/03/01 04:20:44;;;;;;;;;;;;;;;4.21;54.78;94291.63;4957444;28;20367;-68
2024/03/01 04:23:10;;;;;;;;;;;;;;;4.29;55.06;94286.31;4958230;28;19933;-69
2024/03/01 04:25:35;;;;;;;;;;;;;;;4.40;54.43;94296.50;4957681;28;20479;-68
2024/03/01 04:28:00;;;;;;;;;;;;;;;4.44;54.67;94296.94;4958104;28;19922;-68
2024/03/01 04:30:26;;;;;;;;;;;;;;;4.49;54.60;94302.53;4957089;28;20029;-67
2024/03/01 04:32:51;;;;;;;;;;;;;;;4.57;54.58;94302.50;4957689;28;20025;-67
2024/03/01 04:35:17;;;;;;;;;;;;;;;4.56;51.21;94307.94;4959268;28;19978;-67
2024/03/01 04:37:43;;;;;;;;;;;;;;;4.72;53.18;94309.66;4956839;28;20156;-66
2024/03/01 04:40:08;;;;;;;;;;;;;;;4.69;54.29;94310.81;4957583;28;19933;-66
2024/03/01 04:42:34;;;;;;;;;;;;;;;4.78;51.70;94311.63;4957296;28;19942;-66
2024/03/01 04:44:59;;;;;;;;;;;;;;;4.83;52.33;94314.53;4956341;28;20574;-66
2024/03/01 04:47:25;;;;;;;;;;;;;;;4.44;49.92;94310.97;4957658;28;19988;-66
2024/03/01 04:49:50;;;;;;;;;;;;;;;4.63;52.31;94316.78;4957006;28;20092;-67
2024/03/01 04:52:15;;;;;;;;;;;;;;;4.74;52.96;94320.88;4958181;28;19918;-67
2024/03/01 04:54:40;;;;;;;;;;;;;;;4.67;53.93;94315.47;4956769;28;19926;-66
2024/03/01 04:57:06;;;;;;;;;;;;;;;4.76;53.13;94323.34;4957418;28;19926;-66
2024/03/01 04:59:38;;;;;;;;;;;;;;;4.95;53.69;94322.06;4956869;28;20016;-66
2024/03/01 05:02:04;;;;;;;;;;;;;;;4.93;50.54;94324.88;4956141;28;19965;-66
2024/03/01 05:04:29;;;;;;;;;;;;;;;4.81;53.23;94321.00;4955991;28;19981;-66
2024/03/01 05:06:54;;;;;;;;;;;;;;;4.90;53.40;94317.28;4957486;28;20012;-66
2024/03/01 05:09:19;;;;;;;;;;;;;;;4.96;53.31;94318.41;4956548;28;19926;-67
2024/03/01 05:11:45;;;;;;;;;;;;;;;5.09;53.19;94307.31;4957413;28;19957;-66
2024/03/01 05:14:10;;;;;;;;;;;;;;;5.13;52.89;94307.81;4955893;28;19926;-66
2024/03/01 05:16:37;;;;;;;;;;;;;;;5.20;52.52;94309.53;4956398;28;20141;-66
2024/03/01 05:19:02;;;;;;;;;;;;;;;5.11;48.48;94310.63;4951577;28;20455;-66
2024/03/01 05:21:28;;;;;;;;;;;;;;;5.14;52.48;94310.25;4956699;28;19976;-66
2024/03/01 05:23:53;;;;;;;;;;;;;;;5.09;51.44;94317.88;4956076;28;19937;-66
2024/03/01 05:26:18;;;;;;;;;;;;;;;5.11;50.57;94326.44;4956290;28;20165;-66
2024/03/01 05:28:43;;;;;;;;;;;;;;;4.45;51.11;94315.22;4956097;28;20677;-66
2024/03/01 05:31:09;;;;;;;;;;;;;;;4.50;51.69;94316.53;4956711;28;19965;-66
2024/03/01 05:33:34;;;;;;;;;;;;;;;4.73;53.69;94321.84;4951993;28;19964;-66
2024/03/01 05:36:00;;;;;;;;;;;;;;;4.94;52.64;94323.06;4955572;28;19977;-66
2024/03/01 05:38:25;;;;;;;;;;;;;;;4.85;52.06;94317.00;4949413;28;20020;-66
2024/03/01 05:40:50;;;;;;;;;;;;;;;4.96;52.30;94321.06;4955430;28;20371;-66
2024/03/01 05:43:15;;;;;;;;;;;;;;;5.12;52.98;94325.44;4956004;28;19930;-68
2024/03/01 05:45:41;;;;;;;;;;;;;;;3.96;51.00;94326.75;4955594;28;20539;-67
2024/03/01 05:48:10;;;;;;;;;;;;;;;4.62;54.61;94325.69;4956367;28;20426;-68
2024/03/01 05:50:36;;;;;;;;;;;;;;;4.79;53.69;94323.78;4956230;28;19933;-68
2024/03/01 05:53:02;;;;;;;;;;;;;;;5.00;51.58;94334.72;4956189;28;19926;-67
2024/03/01 05:55:28;;;;;;;;;;;;;;;4.87;52.37;94335.28;4956584;28;20649;-68
2024/03/01 05:57:53;;;;;;;;;;;;;;;4.97;52.99;94338.53;4955351;28;19933;-67
2024/03/01 06:00:19;;;;;;;;;;;;;;;5.08;53.29;94350.53;4956127;28;19926;-67
2024/03/01 06:02:45;;;;;;;;;;;;;;;4.86;52.44;94355.56;4956050;28;19914;-67
2024/03/01 06:05:11;;;;;;;;;;;;;;;4.89;51.08;94349.94;4970634;28;20005;-67
2024/03/01 06:07:36;;;;;;;;;;;;;;;4.87;51.22;94346.69;4955961;28;20068;-68
2024/03/01 06:10:01;;;;;;;;;;;;;;;5.09;52.50;94347.72;4955554;28;19926;-67
2024/03/01 06:12:26;;;;;;;;;;;;;;;5.09;50.24;94349.53;4955982;28;19922;-67
2024/03/01 06:14:52;;;;;;;;;;;;;;;5.06;52.47;94352.50;4956180;28;19922;-67
2024/03/01 06:17:17;;;;;;;;;;;;;;;5.07;51.88;94349.69;4955967;28;20044;-67
2024/03/01 06:19:42;;;;;;;;;;;;;;;5.21;51.55;94353.41;4948992;28;20067;-68
2024/03/01 06:22:07;;;;;;;;;;;;;;;5.22;50.48;94349.78;4955402;28;19976;-67
2024/03/01 06:24:33;;;;;;;;;;;;;;;5.09;50.72;94354.81;4955686;28;20012;-67
2024/03/01 06:26:58;;;;;;;;;;;;;;;5.09;52.73;94358.28;4955808;28;19961;-67
2024/03/01 06:29:23;;;;;;;;;;;;;;;5.17;53.12;94348.66;4954825;28;19969;-67
2024/03/01 06:31:49;;;;;;;;;;;;;;;5.32;52.48;94354.00;4956395;28;19968;-68
2024/03/01 06:34:14;;;;;;;;;;;;;;;5.55;48.18;94355.81;4955018;28;19953;-68
2024/03/01 06:36:39;;;;;;;;;;;;;;;5.37;51.14;94354.28;4955430;28;19956;-68
2024/03/01 06:39:06;;;;;;;;;;;;;;;5.05;49.74;94350.84;4956775;28;19952;-67
2024/03/01 06:41:31;;;;;;;;;;;;;;;5.17;52.41;94352.13;4959285;28;19930;-67
2024/03/01 06:43:56;;;;;;;;;;;;;;;5.08;51.64;94354.00;4959522;28;19926;-67
2024/03/01 06:46:23;;;;;;;;;;;;;;;5.17;53.64;94352.13;4958640;28;19926;-67
2024/03/01 06:48:48;;;;;;;;;;;;;;;5.27;52.02;94345.81;4959333;28;20005;-67
2024/03/01 06:51:14;;;;;;;;;;;;;;;5.29;50.35;94349.91;4959774;28;20013;-68
2024/03/01 06:53:41;;;;;;;;;;;;;;;5.13;50.32;94342.91;4959540;28;20332;-67
2024/03/01 06:56:06;;;;;;;;;;;;;;;5.29;52.77;94355.19;4959161;28;20398;-67
2024/03/01 06:58:31;;;;;;;;;;;;;;;5.37;53.37;94346.38;4958148;28;20382;-68
2024/03/01 07:00:57;;;;;;;;;;;;;;;5.39;52.54;94344.38;4959006;28;19922;-67
2024/03/01 07:03:22;;;;;;;;;;;;;;;5.38;52.92;94340.13;4959405;28;19918;-67
2024/03/01 07:05:47;;;;;;;;;;;;;;;5.30;53.05;94345.44;4958080;28;20025;-67
2024/03/01 07:08:13;;;;;;;;;;;;;;;5.31;51.03;94344.44;4959596;28;19925;-67
2024/03/01 07:10:38;;;;;;;;;;;;;;;5.09;50.10;94353.00;4958374;28;20561;-67
2024/03/01 07:13:03;;;;;;;;;;;;;;;5.12;50.94;94357.09;4959002;28;20004;-67
2024/03/01 07:15:29;;;;;;;;;;;;;;;5.22;51.45;94352.44;4958865;28;19976;-67
2024/03/01 07:17:55;;;;;;;;;;;;;;;5.36;52.68;94352.66;4958446;28;19962;-67
2024/03/01 07:20:20;;;;;;;;;;;;;;;5.44;52.53;94355.22;4958054;28;19934;-67
2024/03/01 07:22:46;;;;;;;;;;;;;;;5.62;52.11;94364.66;4958829;28;19953;-67
2024/03/01 07:25:11;;;;;;;;;;;;;;;5.41;50.27;94354.78;4958702;28;20005;-67
2024/03/01 07:27:36;;;;;;;;;;;;;;;5.45;52.32;94354.22;4957606;28;19953;-67
2024/03/01 07:30:04;;;;;;;;;;;;;;;5.61;51.26;94347.16;4955656;28;19968;-68
2024/03/01 07:32:30;;;;;;;;;;;;;;;5.47;52.95;94357.50;4958708;28;19926;-67
2024/03/01 07:34:55;;;;;;;;;;;;;;;5.67;51.24;94362.31;4956771;28;19940;-67
2024/03/01 07:37:20;;;;;;;;;;;;;;;4.69;50.40;94365.38;4956719;28;20669;-67
2024/03/01 07:39:46;;;;;;;;;;;;;;;4.98;50.71;94366.56;4958681;28;19966;-67
2024/03/01 07:42:12;;;;;;;;;;;;;;;5.16;53.18;94361.03;4957992;28;19988;-67
2024/03/01 07:44:37;;;;;;;;;;;;;;;5.27;50.77;94348.44;4958617;28;19929;-67
2024/03/01 07:47:02;;;;;;;;;;;;;;;5.37;52.66;94351.66;4958383;28;19918;-67
2024/03/01 07:49:28;;;;;;;;;;;;;;;5.47;51.60;94357.50;4947901;28;19957;-67
2024/03/01 07:51:53;;;;;;;;;;;;;;;5.49;51.25;94357.34;4958905;28;19981;-67
2024/03/01 07:54:18;;;;;;;;;;;;;;;5.50;50.36;94366.91;4957697;28;20418;-67
2024/03/01 07:56:43;;;;;;;;;;;;;;;5.51;51.63;94373.00;4957199;28;19926;-67
2024/03/01 07:59:09;;;;;;;;;;;;;;;5.32;51.57;94375.94;4956544;28;19930;-67
2024/03/01 08:01:34;;;;;;;;;;;;;;;5.28;51.21;94379.94;4957242;28;20549;-67
2024/03/01 08:03:59;;;;;;;;;;;;;;;5.41;51.96;94367.97;4957866;28;19929;-68
2024/03/01 08:06:25;;;;;;;;;;;;;;;5.45;51.80;94372.69;4950080;28;19933;-69
2024/03/01 08:08:50;;;;;;;;;;;;;;;5.39;50.62;94376.06;4957408;28;19977;-69
2024/03/01 08:11:31;;;;;;;;;;;;;;;5.45;51.75;94385.91;4956531;28;19949;-68
2024/03/01 08:13:56;;;;;;;;;;;;;;;5.47;49.78;94383.91;4957800;28;19926;-68
2024/03/01 08:16:21;;;;;;;;;;;;;;;5.55;51.47;94377.75;4955497;28;19922;-68
2024/03/01 08:18:46;;;;;;;;;;;;;;;5.55;51.34;94380.38;4957876;28;19933;-68
2024/03/01 08:21:13;;;;;;;;;;;;;;;5.47;50.92;94378.63;4956496;28;19933;-69
2024/03/01 08:23:40;;;;;;;;;;;;;;;5.70;50.76;94375.16;4970155;28;20108;-68
2024/03/01 08:26:25;;;;;;;;;;;;;;;5.66;50.59;94375.69;4970757;28;19930;-68
2024/03/01 08:28:50;;;;;;;;;;;;;;;5.26;50.00;94379.28;4953454;28;19965;-70
2024/03/01 08:31:18;;;;;;;;;;;;;;;5.30;50.71;94375.28;4956275;28;19981;-69
2024/03/01 08:33:44;;;;;;;;;;;;;;;5.52;50.67;94379.94;4957208;28;20463;-68
2024/03/01 08:36:09;;;;;;;;;;;;;;;5.07;50.64;94383.19;4957020;28;19933;-69
2024/03/01 08:38:41;;;;;;;;;;;;;;;4.51;52.37;94379.63;4956415;28;20010;-69
2024/03/01 08:41:08;;;;;;;;;;;;;;;5.32;51.21;94375.94;4957575;28;19926;-68
2024/03/01 08:43:33;;;;;;;;;;;;;;;5.39;51.01;94383.16;4956477;28;19972;-68
2024/03/01 08:46:00;;;;;;;;;;;;;;;5.70;50.65;94382.25;4951891;28;20020;-69
2024/03/01 08:48:25;;;;;;;;;;;;;;;5.80;50.68;94382.00;4949517;28;20623;-68
2024/03/01 08:50:51;;;;;;;;;;;;;;;5.89;50.50;94362.47;4945609;28;19926;-70
2024/03/01 08:53:28;;;;;;;;;;;;;;;6.08;49.45;94378.78;4947322;28;20033;-68
2024/03/01 08:55:54;;;;;;;;;;;;;;;5.90;50.29;94376.47;4952926;28;20020;-69
2024/03/01 08:58:22;;;;;;;;;;;;;;;5.80;50.80;94376.72;4952319;28;20610;-68
2024/03/01 09:00:50;;;;;;;;;;;;;;;5.61;48.74;94390.25;4951959;28;19933;-69
2024/03/01 09:03:20;;;;;;;;;;;;;;;5.73;50.21;94398.59;4940010;28;19929;-68
2024/03/01 09:05:45;;;;;;;;;;;;;;;5.51;49.48;94397.56;4954047;28;19926;-67
2024/03/01 09:08:17;;;;;;;;;;;;;;;5.82;49.08;94399.31;4956915;28;19928;-68
2024/03/01 09:10:43;;;;;;;;;;;;;;;5.88;49.32;94400.44;4971051;28;19926;-69
2024/03/01 09:13:09;;;;;;;;;;;;;;;5.82;49.81;94394.03;4956004;28;20004;-67
2024/03/01 09:15:38;;;;;;;;;;;;;;;4.96;51.88;94395.75;4956254;28;20675;-67
2024/03/01 09:18:03;;;;;;;;;;;;;;;5.42;50.82;94391.56;4945347;28;19969;-67
2024/03/01 09:20:37;;;;;;;;;;;;;;;5.24;51.30;94394.47;4970642;28;20580;-67
2024/03/01 09:23:06;;;;;;;;;;;;;;;5.63;49.56;94382.16;4956187;28;19926;-67
2024/03/01 09:25:40;;;;;;;;;;;;;;;4.24;52.67;94402.75;4969432;28;19927;-66
2024/03/01 09:28:06;;;;;;;;;;;;;;;4.70;52.99;94399.47;4950371;28;19961;-67
2024/03/01 09:30:31;;;;;;;;;;;;;;;5.13;51.24;94403.59;4965056;28;20049;-67
2024/03/01 09:32:56;;;;;;;;;;;;;;;5.10;52.28;94390.75;4949561;28;19969;-67
2024/03/01 09:35:21;;;;;;;;;;;;;;;5.48;51.17;94398.75;4955505;28;20160;-67
2024/03/01 09:37:46;;;;;;;;;;;;;;;4.71;50.88;94401.13;4954542;28;20632;-67
2024/03/01 09:40:31;;;;;;;;;;;;;;;4.01;53.16;94405.28;4953680;28;20741;-67
2024/03/01 09:42:58;;;;;;;;;;;;;;;3.10;56.43;94419.16;4960218;28;19978;-67
2024/03/01 09:45:45;;;;;;;;;;;;;;;3.99;55.22;94410.72;4967461;28;20698;-67
2024/03/01 09:48:24;;;;;;;;;;;;;;;4.28;55.27;94409.34;4953203;28;19932;-67
2024/03/01 09:50:57;;;;;;;;;;;;;;;2.81;59.04;94408.06;4954333;28;19930;-67
2024/03/01 09:53:29;;;;;;;;;;;;;;;4.39;54.36;94402.88;4955724;28;20185;-68
2024/03/01 09:55:56;;;;;;;;;;;;;;;3.55;55.31;94406.59;4955489;28;20366;-68
2024/03/01 09:58:44;;;;;;;;;;;;;;;3.98;54.24;94413.50;4952220;28;20628;-68
2024/03/01 10:01:12;;;;;;;;;;;;;;;3.64;56.96;94405.59;4955417;28;19930;-67
2024/03/01 10:03:37;;;;;;;;;;;;;;;3.77;56.76;94404.28;4955410;28;19918;-68
2024/03/01 10:06:09;;;;;;;;;;;;;;;3.97;55.51;94398.66;4940710;28;19926;-68
2024/03/01 10:08:38;;;;;;;;;;;;;;;2.96;57.00;94410.09;4952802;28;19922;-68
2024/03/01 10:11:18;;;;;;;;;;;;;;;4.18;56.25;94411.31;4954575;28;20012;-68
2024/03/01 10:14:04;;;;;;;;;;;;;;;4.77;54.51;94411.97;4967961;28;19925;-67
2024/03/01 10:16:45;;;;;;;;;;;;;;;4.97;52.27;94407.94;4954890;28;19922;-68
2024/03/01 10:19:13;;;;;;;;;;;;;;;5.30;51.42;94404.31;4955218;28;20626;-68
2024/03/01 10:21:55;;;;;;;;;;;;;;;4.54;53.18;94402.19;4963684;28;19926;-67
2024/03/01 10:24:35;;;;;;;;;;;;;;;4.42;54.90;94404.38;4954519;28;20137;-69
2024/03/01 10:27:00;;;;;;;;;;;;;;;3.74;59.23;94409.91;4939878;28;19930;-68
2024/03/01 10:29:38;;;;;;;;;;;;;;;4.83;55.68;94406.03;4949956;28;20342;-69
2024/03/01 10:32:10;;;;;;;;;;;;;;;5.25;53.12;94404.03;4955097;28;20426;-69
2024/03/01 10:34:52;;;;;;;;;;;;;;;4.90;53.05;94404.34;4952183;28;19934;-69
2024/03/01 10:37:29;;;;;;;;;;;;;;;3.45;56.07;94412.03;4954640;28;19937;-69
2024/03/01 10:39:57;;;;;;;;;;;;;;;3.01;60.96;94421.78;4955979;28;20012;-69
2024/03/01 10:42:25;;;;;;;;;;;;;;;4.43;55.53;94414.72;4954567;28;19959;-68
2024/03/01 10:44:50;;;;;;;;;;;;;;;4.10;55.43;94414.81;4954937;28;19926;-69
2024/03/01 10:47:42;;;;;;;;;;;;;;;3.17;59.72;94415.72;4953994;28;19925;-68
2024/03/01 10:50:07;;;;;;;;;;;;;;;4.21;57.41;94410.19;4949974;28;19925;-68
2024/03/01 10:52:33;;;;;;;;;;;;;;;3.85;57.95;94406.94;4952369;28;20451;-68
2024/03/01 10:54:58;;;;;;;;;;;;;;;3.34;59.59;94414.94;4955505;28;19961;-68
2024/03/01 10:57:24;;;;;;;;;;;;;;;4.73;55.50;94403.56;4955245;28;20016;-68
2024/03/01 10:59:51;;;;;;;;;;;;;;;4.64;54.12;94420.44;4953615;28;19950;-69
2024/03/01 11:02:33;;;;;;;;;;;;;;;4.41;55.38;94408.81;4954186;28;20435;-69
2024/03/01 11:04:58;;;;;;;;;;;;;;;5.00;52.68;94413.88;4962578;28;19976;-69
2024/03/01 11:07:42;;;;;;;;;;;;;;;4.59;54.80;94413.03;4942622;28;20009;-69
2024/03/01 11:10:22;;;;;;;;;;;;;;;4.05;55.58;94407.38;4954226;28;20771;-68
2024/03/01 11:12:52;;;;;;;;;;;;;;;3.31;57.10;94418.72;4968593;28;19933;-69
2024/03/01 11:15:18;;;;;;;;;;;;;;;4.51;55.11;94410.41;4955397;28;20451;-69
2024/03/01 11:17:43;;;;;;;;;;;;;;;5.17;54.00;94396.16;4968918;28;19932;-69
2024/03/01 11:20:13;;;;;;;;;;;;;;;4.76;54.66;94394.53;4967625;28;19932;-68
2024/03/01 11:22:41;;;;;;;;;;;;;;;4.59;55.49;94394.56;4951454;28;20029;-69
2024/03/01 11:25:06;;;;;;;;;;;;;;;4.87;53.66;94388.03;4954497;28;19926;-69
2024/03/01 11:27:32;;;;;;;;;;;;;;;4.81;55.05;94386.91;4948224;28;19925;-69
2024/03/01 11:29:59;;;;;;;;;;;;;;;4.39;56.64;94386.25;4970554;28;19937;-69
2024/03/01 11:32:25;;;;;;;;;;;;;;;4.71;53.50;94384.47;4956770;28;19926;-67
2024/03/01 11:35:11;;;;;;;;;;;;;;;5.82;52.04;94377.38;4957984;28;19958;-68
2024/03/01 11:37:37;;;;;;;;;;;;;;;6.01;50.16;94386.59;4956099;28;19939;-68
2024/03/01 11:40:16;;;;;;;;;;;;;;;6.49;48.98;94377.56;4957950;28;19984;-68
2024/03/01 11:42:50;;;;;;;;;;;;;;;7.19;46.02;94386.94;4951183;28;19929;-68
2024/03/01 11:45:18;;;;;;;;;;;;;;;6.45;46.39;94400.06;4981770;28;19925;-68
2024/03/01 11:47:55;;;;;;;;;;;;;;;6.58;45.54;94383.59;4956747;28;19918;-68
2024/03/01 11:50:44;;;;;;;;;;;;;;;6.96;45.71;94401.16;4967723;28;19926;-67
2024/03/01 11:53:13;;;;;;;;;;;;;;;5.24;49.34;94401.56;4939017;28;19933;-66
2024/03/01 11:55:44;;;;;;;;;;;;;;;5.98;47.57;94416.84;4953586;28;19918;-67
2024/03/01 11:58:10;;;;;;;;;;;;;;;4.97;49.47;94423.75;4950535;28;20363;-67
2024/03/01 12:00:38;;;;;;;;;;;;;;;5.04;49.59;94412.53;4955589;28;19960;-67
2024/03/01 12:03:06;;;;;;;;;;;;;;;4.41;51.62;94424.63;4952986;28;20685;-67
2024/03/01 12:05:57;;;;;;;;;;;;;;;4.34;50.58;94421.00;4956035;28;20615;-67
2024/03/01 12:08:24;;;;;;;;;;;;;;;3.68;52.15;94422.72;4969580;28;19973;-67
2024/03/01 12:10:52;;;;;;;;;;;;;;;3.65;52.51;94416.97;4956808;28;20053;-67
2024/03/01 12:13:17;;;;;;;;;;;;;;;4.19;51.88;94418.25;4956678;28;19944;-66
2024/03/01 12:16:04;;;;;;;;;;;;;;;3.80;50.60;94427.66;4955281;28;19922;-67
2024/03/01 12:18:30;;;;;;;;;;;;;;;2.45;56.81;94424.03;4957226;28;19933;-67
2024/03/01 12:21:13;;;;;;;;;;;;;;;4.27;51.67;94423.50;4956989;28;20566;-67
2024/03/01 12:24:08;;;;;;;;;;;;;;;4.19;50.55;94411.16;4956833;28;19925;-67
2024/03/01 12:26:36;;;;;;;;;;;;;;;4.75;48.95;94411.31;4944795;28;19937;-67
2024/03/01 12:29:02;;;;;;;;;;;;;;;4.84;52.26;94415.59;4954218;28;20320;-67
2024/03/01 12:31:47;;;;;;;;;;;;;;;4.47;49.16;94409.13;4956553;28;19948;-67
2024/03/01 12:34:31;;;;;;;;;;;;;;;3.75;52.12;94416.81;4945142;28;19961;-67
2024/03/01 12:37:26;;;;;;;;;;;;;;;5.73;47.33;94417.06;4954940;28;20087;-68
2024/03/01 12:39:57;;;;;;;;;;;;;;;7.02;43.10;94416.28;4952307;28;20543;-68
2024/03/01 12:42:25;;;;;;;;;;;;;;;5.89;43.35;94430.31;4956037;28;19936;-66
2024/03/01 12:45:09;;;;;;;;;;;;;;;6.14;42.49;94430.94;4956038;28;20001;-65
2024/03/01 12:47:59;;;;;;;;;;;;;;;5.57;43.66;94427.72;4956414;28;19952;-66
2024/03/01 12:50:35;;;;;;;;;;;;;;;7.04;41.31;94432.00;4967284;28;19961;-66
2024/03/01 12:53:18;;;;;;;;;;;;;;;6.58;41.70;94425.91;4956182;28;20275;-66
2024/03/01 12:55:47;;;;;;;;;;;;;;;7.31;42.47;94417.22;4955693;28;20405;-66
2024/03/01 12:58:26;;;;;;;;;;;;;;;7.93;42.18;94416.84;4955214;28;20017;-65
2024/03/01 13:01:10;;;;;;;;;;;;;;;7.71;42.08;94422.13;4970641;28;19926;-66
2024/03/01 13:03:38;;;;;;;;;;;;;;;7.91;39.88;94418.84;4955618;28;19922;-66
2024/03/01 13:06:03;;;;;;;;;;;;;;;8.75;40.36;94411.09;4954702;28;19934;-66
2024/03/01 13:08:37;;;;;;;;;;;;;;;8.73;39.15;94397.19;4968835;28;19926;-66
2024/03/01 13:11:02;;;;;;;;;;;;;;;8.42;38.07;94399.25;4956580;28;20013;-66
2024/03/01 13:13:29;;;;;;;;;;;;;;;8.93;36.89;94409.72;4955198;28;19922;-66
2024/03/01 13:16:10;;;;;;;;;;;;;;;9.10;40.36;94399.63;4956514;28;19926;-66
2024/03/01 13:18:47;;;;;;;;;;;;;;;10.28;35.31;94387.97;4965349;28;19926;-66
2024/03/01 13:21:25;;;;;;;;;;;;;;;10.99;36.93;94382.88;4955017;28;20295;-67
2024/03/01 13:23:56;;;;;;;;;;;;;;;11.32;32.24;94391.78;4955003;28;19926;-66
2024/03/01 13:26:40;;;;;;;;;;;;;;;11.41;35.40;94392.34;4969240;28;20017;-66
2024/03/01 13:29:10;;;;;;;;;;;;;;;11.75;32.52;94385.78;4948106;28;19929;-65
2024/03/01 13:31:47;;;;;;;;;;;;;;;11.25;32.87;94386.47;4954719;28;20363;-66
2024/03/01 13:34:12;;;;;;;;;;;;;;;12.74;31.13;94386.19;4957101;28;19926;-65
2024/03/01 13:36:38;;;;;;;;;;;;;;;11.33;33.48;94380.91;4953977;28;20412;-66
2024/03/01 13:39:45;;;;;;;;;;;;;;;9.11;35.36;94382.66;4965444;28;19941;-66
2024/03/01 13:42:20;;;;;;;;;;;;;;;11.50;32.32;94378.53;4952180;28;19978;-66
2024/03/01 13:44:45;;;;;;;;;;;;;;;12.84;32.21;94371.50;4956304;28;19973;-66
2024/03/01 13:47:14;;;;;;;;;;;;;;;13.70;30.84;94367.94;4950832;28;20388;-66
2024/03/01 13:49:40;;;;;;;;;;;;;;;13.76;28.15;94379.59;4955153;28;19972;-66
2024/03/01 13:52:07;;;;;;;;;;;;;;;14.59;29.72;94366.31;4950474;28;20033;-68
2024/03/01 13:54:33;;;;;;;;;;;;;;;15.45;28.23;94366.72;4950249;28;19933;-68
2024/03/01 13:56:59;;;;;;;;;;;;;;;15.58;26.11;94360.31;4953942;28;20045;-68
2024/03/01 13:59:24;;;;;;;;;;;;;;;12.74;31.44;94359.47;4955257;28;19921;-68
2024/03/01 14:01:50;;;;;;;;;;;;;;;14.91;29.06;94359.78;4955088;28;20034;-68
2024/03/01 14:04:15;;;;;;;;;;;;;;;14.03;29.07;94361.31;4954896;28;19932;-68
2024/03/01 14:06:46;;;;;;;;;;;;;;;13.96;30.39;94384.69;4955330;28;20472;-68
2024/03/01 14:09:12;;;;;;;;;;;;;;;14.18;29.11;94363.53;4954932;28;20625;-68
2024/03/01 14:11:38;;;;;;;;;;;;;;;14.30;29.11;94357.38;4955528;28;19922;-68
2024/03/01 14:14:04;;;;;;;;;;;;;;;14.36;28.14;94348.41;4953445;28;19979;-68
2024/03/01 14:16:32;;;;;;;;;;;;;;;12.40;31.64;94343.81;4952883;28;19985;-68
2024/03/01 14:18:57;;;;;;;;;;;;;;;14.18;29.19;94344.78;4955607;28;19930;-68
2024/03/01 14:21:24;;;;;;;;;;;;;;;15.01;27.90;94355.69;4955278;28;20563;-68
2024/03/01 14:23:51;;;;;;;;;;;;;;;15.24;26.89;94344.09;4953245;28;19976;-68
2024/03/01 14:26:16;;;;;;;;;;;;;;;14.63;27.92;94355.97;4953977;28;20404;-68
2024/03/01 14:28:44;;;;;;;;;;;;;;;12.64;32.07;94353.84;4971554;28;19926;-68
2024/03/01 14:31:10;;;;;;;;;;;;;;;14.52;29.02;94348.75;4953220;28;19929;-68
2024/03/01 14:33:35;;;;;;;;;;;;;;;14.84;27.00;94341.16;4956987;28;19926;-68
2024/03/01 14:36:01;;;;;;;;;;;;;;;14.67;27.29;94343.72;4953125;28;19937;-68
2024/03/01 14:38:27;;;;;;;;;;;;;;;15.22;26.57;94348.84;4968687;28;19930;-68
2024/03/01 14:40:59;;;;;;;;;;;;;;;14.79;26.99;94348.28;4952413;28;19929;-68
2024/03/01 14:43:25;;;;;;;;;;;;;;;15.16;26.59;94349.81;4953869;28;19937;-68